createdAt,value
2022-10-22T00:00:00.467Z,13.29
2022-10-22T00:02:28.105Z,13.33
2022-10-22T00:04:57.192Z,13.34
2022-10-22T00:07:24.345Z,13.45
2022-10-22T00:09:51.448Z,13.33
2022-10-22T00:12:18.774Z,13.47
2022-10-22T00:14:46.265Z,13.47
2022-10-22T00:17:13.342Z,13.50
2022-10-22T00:19:40.813Z,13.46
2022-10-22T00:22:10.161Z,13.45
2022-10-22T00:24:38.181Z,13.43
2022-10-22T00:27:05.498Z,13.40
2022-10-22T00:29:32.753Z,13.40
2022-10-22T00:31:59.670Z,13.41
2022-10-22T00:34:26.591Z,13.32
2022-10-22T00:36:53.632Z,13.41
2022-10-22T00:39:22.910Z,13.34
2022-10-22T00:41:51.489Z,13.28
2022-10-22T00:44:55.814Z,13.34
2022-10-22T00:47:24.061Z,13.25
2022-10-22T00:49:53.990Z,13.30
2022-10-22T00:52:21.995Z,13.35
2022-10-22T00:54:50.054Z,13.35
2022-10-22T00:57:19.891Z,13.41
2022-10-22T00:59:47.848Z,13.40
2022-10-22T01:02:15.380Z,13.46
2022-10-22T01:04:42.675Z,13.41
2022-10-22T01:07:17.624Z,13.45
2022-10-22T01:10:01.976Z,13.45
2022-10-22T01:12:42.778Z,13.45
2022-10-22T01:16:03.316Z,13.47
2022-10-22T01:18:59.830Z,13.50
2022-10-22T01:21:51.895Z,13.50
2022-10-22T01:24:26.143Z,13.54
2022-10-22T01:27:14.175Z,13.58
2022-10-22T01:29:51.600Z,13.62
2022-10-22T01:32:23.383Z,13.68
2022-10-22T01:34:55.826Z,13.68
2022-10-22T01:37:26.992Z,13.71
2022-10-22T01:39:56.104Z,13.71
2022-10-22T01:42:24.002Z,13.71
2022-10-22T01:44:50.844Z,13.75
2022-10-22T01:47:42.397Z,13.81
2022-10-22T01:50:22.502Z,13.80
2022-10-22T01:53:23.350Z,13.82
2022-10-22T01:56:27.452Z,13.80
2022-10-22T01:59:26.361Z,13.79
2022-10-22T02:02:28.129Z,13.85
2022-10-22T02:05:32.691Z,13.60
2022-10-22T02:08:12.535Z,13.25
2022-10-22T02:10:43.701Z,12.90
2022-10-22T02:13:26.755Z,12.89
2022-10-22T02:15:55.950Z,12.76
2022-10-22T02:18:27.582Z,12.85
2022-10-22T02:20:55.338Z,12.93
2022-10-22T02:23:22.579Z,12.97
2022-10-22T02:25:56.383Z,12.95
2022-10-22T02:28:49.387Z,13.07
2022-10-22T02:31:21.878Z,13.18
2022-10-22T02:33:54.955Z,13.22
2022-10-22T02:36:23.752Z,13.27
2022-10-22T02:38:52.359Z,13.35
2022-10-22T02:41:20.483Z,13.37
2022-10-22T02:43:56.962Z,13.42
2022-10-22T02:46:25.896Z,13.49
2022-10-22T02:48:52.708Z,13.54
2022-10-22T02:51:19.516Z,13.57
2022-10-22T02:53:46.413Z,13.62
2022-10-22T02:56:14.354Z,13.62
2022-10-22T02:58:41.376Z,13.68
2022-10-22T03:01:10.281Z,13.74
2022-10-22T03:03:39.245Z,13.75
2022-10-22T03:06:06.316Z,13.73
2022-10-22T03:08:33.398Z,13.72
2022-10-22T03:11:00.287Z,13.66
2022-10-22T03:13:27.111Z,13.66
2022-10-22T03:15:53.994Z,13.63
2022-10-22T03:18:20.866Z,13.68
2022-10-22T03:20:47.775Z,13.68
2022-10-22T03:23:20.036Z,13.66
2022-10-22T03:25:50.308Z,13.72
2022-10-22T03:28:18.873Z,13.68
2022-10-22T03:30:45.676Z,13.72
2022-10-22T03:33:12.814Z,13.72
2022-10-22T03:35:46.281Z,13.72
2022-10-22T03:38:14.598Z,13.74
2022-10-22T03:40:44.487Z,13.65
2022-10-22T03:43:11.608Z,13.62
2022-10-22T03:48:10.166Z,13.59
2022-10-22T03:50:37.036Z,13.56
2022-10-22T03:53:04.533Z,13.49
2022-10-22T03:55:34.061Z,13.53
2022-10-22T03:58:00.997Z,13.31
2022-10-22T04:00:27.815Z,13.37
2022-10-22T04:02:54.646Z,13.36
2022-10-22T04:05:21.598Z,13.36
2022-10-22T04:07:48.386Z,13.26
2022-10-22T04:10:15.307Z,13.29
2022-10-22T04:12:42.168Z,13.28
2022-10-22T04:15:09.515Z,13.27
2022-10-22T04:17:37.790Z,13.30
2022-10-22T04:20:06.076Z,13.38
2022-10-22T04:22:37.004Z,13.36
2022-10-22T04:25:05.296Z,13.37
2022-10-22T04:27:33.372Z,13.41
2022-10-22T04:30:00.152Z,13.44
2022-10-22T04:32:28.107Z,13.41
2022-10-22T04:34:54.922Z,13.48
2022-10-22T04:37:22.154Z,13.53
2022-10-22T04:39:49.247Z,13.50
2022-10-22T04:42:16.054Z,13.44
2022-10-22T04:44:43.128Z,13.45
2022-10-22T04:47:09.937Z,13.45
2022-10-22T04:49:36.787Z,13.45
2022-10-22T04:52:03.816Z,13.44
2022-10-22T04:54:33.047Z,13.45
2022-10-22T04:57:18.592Z,13.47
2022-10-22T04:59:45.564Z,13.47
2022-10-22T05:02:12.445Z,13.51
2022-10-22T05:04:39.261Z,13.53
2022-10-22T05:07:06.214Z,13.54
2022-10-22T05:09:33.035Z,13.52
2022-10-22T05:11:59.905Z,13.54
2022-10-22T05:14:26.864Z,13.58
2022-10-22T05:16:54.522Z,13.52
2022-10-22T05:19:30.228Z,13.50
2022-10-22T05:21:59.747Z,13.61
2022-10-22T05:24:27.559Z,13.61
2022-10-22T05:27:14.269Z,13.61
2022-10-22T05:29:41.071Z,13.67
2022-10-22T05:32:08.022Z,13.78
2022-10-22T05:34:36.351Z,13.84
2022-10-22T05:37:03.266Z,13.87
2022-10-22T05:39:30.075Z,13.96
2022-10-22T05:41:57.005Z,13.99
2022-10-22T05:44:23.783Z,14.15
2022-10-22T05:46:50.775Z,14.31
2022-10-22T05:49:17.709Z,15.11
2022-10-22T05:51:44.506Z,15.43
2022-10-22T05:54:22.372Z,15.60
2022-10-22T05:56:49.346Z,15.63
2022-10-22T05:59:16.171Z,16.21
2022-10-22T06:01:43.056Z,16.42
2022-10-22T06:04:12.727Z,16.86
2022-10-22T06:06:42.471Z,17.49
2022-10-22T06:09:20.446Z,17.69
2022-10-22T06:11:47.571Z,17.30
2022-10-22T06:14:15.002Z,17.30
2022-10-22T06:16:41.958Z,17.79
2022-10-22T06:19:11.632Z,17.93
2022-10-22T06:21:38.664Z,18.26
2022-10-22T06:24:06.236Z,17.95
2022-10-22T06:26:33.092Z,18.65
2022-10-22T06:29:00.343Z,19.99
2022-10-22T06:31:28.043Z,21.14
2022-10-22T06:33:56.480Z,21.95
2022-10-22T06:36:24.646Z,22.78
2022-10-22T06:38:53.420Z,23.54
2022-10-22T06:41:23.039Z,22.21
2022-10-22T06:43:54.196Z,22.53
2022-10-22T06:46:22.059Z,22.90
2022-10-22T06:49:07.577Z,22.18
2022-10-22T06:51:34.469Z,21.80
2022-10-22T06:54:01.342Z,23.43
2022-10-22T06:56:29.438Z,24.39
2022-10-22T06:58:58.357Z,25.35
2022-10-22T07:01:43.745Z,25.31
2022-10-22T07:04:11.292Z,25.54
2022-10-22T07:06:38.150Z,25.72
2022-10-22T07:09:05.110Z,25.22
2022-10-22T07:11:39.694Z,23.06
2022-10-22T07:14:06.576Z,23.60
2022-10-22T07:16:33.588Z,23.78
2022-10-22T07:19:02.277Z,24.85
2022-10-22T07:21:30.515Z,24.66
2022-10-22T07:23:57.786Z,25.01
2022-10-22T07:26:25.680Z,25.50
2022-10-22T07:28:52.576Z,25.44
2022-10-22T07:31:19.899Z,25.56
2022-10-22T07:33:46.766Z,25.78
2022-10-22T07:36:18.044Z,25.36
2022-10-22T07:38:46.928Z,25.87
2022-10-22T07:41:15.311Z,26.28
2022-10-22T07:43:42.526Z,25.72
2022-10-22T07:46:09.647Z,25.76
2022-10-22T07:48:37.286Z,25.76
2022-10-22T07:51:05.759Z,26.05
2022-10-22T07:53:33.339Z,25.92
2022-10-22T07:56:00.132Z,25.52
2022-10-22T07:58:26.946Z,25.36
2022-10-22T08:00:58.770Z,25.59
2022-10-22T08:03:25.666Z,25.75
2022-10-22T08:05:52.975Z,25.95
2022-10-22T08:08:20.066Z,25.87
2022-10-22T08:10:47.855Z,26.56
2022-10-22T08:13:15.560Z,26.71
2022-10-22T08:18:15.378Z,26.35
2022-10-22T08:20:42.756Z,26.44
2022-10-22T08:23:09.548Z,26.95
2022-10-22T08:25:36.486Z,26.47
2022-10-22T08:28:03.523Z,26.78
2022-10-22T08:30:30.433Z,26.61
2022-10-22T08:32:57.432Z,26.74
2022-10-22T08:35:24.599Z,27.19
2022-10-22T08:37:51.577Z,26.94
2022-10-22T08:40:39.014Z,27.27
2022-10-22T08:43:18.588Z,27.56
2022-10-22T08:46:03.886Z,27.30
2022-10-22T08:48:44.866Z,26.93
2022-10-22T08:51:21.569Z,27.35
2022-10-22T08:54:14.841Z,27.32
2022-10-22T08:56:45.685Z,27.20
2022-10-22T08:59:20.622Z,27.32
2022-10-22T09:02:10.530Z,27.24
2022-10-22T09:04:49.331Z,27.38
2022-10-22T09:07:16.368Z,27.49
2022-10-22T09:09:49.341Z,27.41
2022-10-22T09:12:20.228Z,27.00
2022-10-22T09:14:47.609Z,27.33
2022-10-22T09:17:35.533Z,26.76
2022-10-22T09:20:26.992Z,26.74
2022-10-22T09:23:05.562Z,26.71
2022-10-22T09:25:36.912Z,26.58
2022-10-22T09:28:05.907Z,27.07
2022-10-22T09:30:38.156Z,26.69
2022-10-22T09:33:14.670Z,26.42
2022-10-22T09:35:59.411Z,26.50
2022-10-22T09:38:32.101Z,26.64
2022-10-22T09:41:00.730Z,27.02
2022-10-22T09:43:27.718Z,26.63
2022-10-22T09:46:02.547Z,26.48
2022-10-22T09:48:36.732Z,26.53
2022-10-22T09:51:16.551Z,26.89
2022-10-22T09:53:46.475Z,26.98
2022-10-22T09:56:41.017Z,26.23
2022-10-22T09:59:18.495Z,26.52
2022-10-22T10:01:45.730Z,26.77
2022-10-22T10:04:15.391Z,26.90
2022-10-22T10:06:44.782Z,27.06
2022-10-22T10:09:20.786Z,26.81
2022-10-22T10:12:05.911Z,26.94
2022-10-22T10:14:47.791Z,27.08
2022-10-22T10:17:39.930Z,26.37
2022-10-22T10:20:31.160Z,26.68
2022-10-22T10:23:00.919Z,26.64
2022-10-22T10:25:42.880Z,26.92
2022-10-22T10:28:23.722Z,26.40
2022-10-22T10:31:27.791Z,26.30
2022-10-22T10:34:37.498Z,26.12
2022-10-22T10:37:26.380Z,25.60
2022-10-22T10:40:19.822Z,25.37
2022-10-22T10:42:58.104Z,25.28
2022-10-22T10:45:37.211Z,24.96
2022-10-22T10:48:09.943Z,25.05
2022-10-22T10:50:55.092Z,25.10
2022-10-22T10:53:30.771Z,24.92
2022-10-22T10:55:57.608Z,24.85
2022-10-22T10:58:53.892Z,24.69
2022-10-22T11:01:47.342Z,24.55
2022-10-22T11:04:42.212Z,24.44
2022-10-22T11:07:30.279Z,25.32
2022-10-22T11:10:13.822Z,25.48
2022-10-22T11:12:46.082Z,25.67
2022-10-22T11:15:28.462Z,26.17
2022-10-22T11:17:59.722Z,26.43
2022-10-22T11:20:39.910Z,26.65
2022-10-22T11:23:20.655Z,26.66
2022-10-22T11:25:49.902Z,26.85
2022-10-22T11:28:22.642Z,26.66
2022-10-22T11:30:57.182Z,26.50
2022-10-22T11:33:29.489Z,26.21
2022-10-22T11:35:59.623Z,25.70
2022-10-22T11:38:27.160Z,25.28
2022-10-22T11:41:01.552Z,25.13
2022-10-22T11:43:51.979Z,24.88
2022-10-22T11:46:18.772Z,24.70
2022-10-22T11:49:02.045Z,24.47
2022-10-22T11:51:38.213Z,24.36
2022-10-22T11:54:29.737Z,24.04
2022-10-22T11:57:27.915Z,23.80
2022-10-22T11:59:59.991Z,23.57
2022-10-22T12:02:32.647Z,23.47
2022-10-22T12:05:24.227Z,23.36
2022-10-22T12:07:58.594Z,23.25
2022-10-22T12:10:29.581Z,23.20
2022-10-22T12:13:00.723Z,23.00
2022-10-22T12:15:28.939Z,22.98
2022-10-22T12:18:05.942Z,22.88
2022-10-22T12:20:32.873Z,22.92
2022-10-22T12:23:00.291Z,22.77
2022-10-22T12:25:35.486Z,22.53
2022-10-22T12:28:02.973Z,22.45
2022-10-22T12:30:37.347Z,22.27
2022-10-22T12:33:08.160Z,22.33
2022-10-22T12:35:43.843Z,22.04
2022-10-22T12:38:20.424Z,21.96
2022-10-22T12:40:48.724Z,21.97
2022-10-22T12:43:19.659Z,21.94
2022-10-22T12:45:49.599Z,21.87
2022-10-22T12:48:27.451Z,21.86
2022-10-22T12:50:57.063Z,21.76
2022-10-22T12:53:30.803Z,21.71
2022-10-22T12:56:02.612Z,21.78
2022-10-22T12:58:39.837Z,21.75
2022-10-22T13:01:07.303Z,21.83
2022-10-22T13:03:38.777Z,21.83
2022-10-22T13:06:34.392Z,21.95
2022-10-22T13:09:27.466Z,22.12
2022-10-22T13:12:05.011Z,21.95
2022-10-22T13:14:34.910Z,21.95
2022-10-22T13:17:15.077Z,22.11
2022-10-22T13:19:46.313Z,22.10
2022-10-22T13:22:36.885Z,22.06
2022-10-22T13:25:16.150Z,22.13
2022-10-22T13:27:50.078Z,22.15
2022-10-22T13:30:27.820Z,22.10
2022-10-22T13:33:03.405Z,22.17
2022-10-22T13:35:36.206Z,22.21
2022-10-22T13:38:06.327Z,22.26
2022-10-22T13:40:33.203Z,22.28
2022-10-22T13:42:59.983Z,22.42
2022-10-22T13:45:26.877Z,22.42
2022-10-22T13:47:55.199Z,22.53
2022-10-22T13:50:22.149Z,22.53
2022-10-22T13:52:57.138Z,22.40
2022-10-22T13:55:30.289Z,22.40
2022-10-22T13:58:03.570Z,22.42
2022-10-22T14:00:31.294Z,22.49
2022-10-22T14:02:59.661Z,22.41
2022-10-22T14:05:26.494Z,22.48
2022-10-22T14:07:53.812Z,22.51
2022-10-22T14:10:24.903Z,22.52
2022-10-22T14:12:53.810Z,22.55
2022-10-22T14:15:26.314Z,22.53
2022-10-22T14:17:57.343Z,22.54
2022-10-22T14:20:27.976Z,22.65
2022-10-22T14:22:55.323Z,22.64
2022-10-22T14:25:25.603Z,22.75
2022-10-22T14:27:52.892Z,22.83
2022-10-22T14:30:22.711Z,22.94
2022-10-22T14:32:50.333Z,23.04
2022-10-22T14:35:21.618Z,23.17
2022-10-22T14:37:48.514Z,23.18
2022-10-22T14:40:20.584Z,23.17
2022-10-22T14:42:49.023Z,23.18
2022-10-22T14:45:23.147Z,23.10
2022-10-22T14:47:51.163Z,23.10
2022-10-22T14:50:19.474Z,23.02
2022-10-22T14:52:46.382Z,23.01
2022-10-22T14:55:16.003Z,22.90
2022-10-22T14:57:43.221Z,22.87
2022-10-22T15:00:13.696Z,22.79
2022-10-22T15:02:40.996Z,22.76
2022-10-22T15:05:08.772Z,22.66
2022-10-22T15:07:35.842Z,22.55
2022-10-22T15:10:04.544Z,22.45
2022-10-22T15:12:31.539Z,22.29
2022-10-22T15:14:58.439Z,22.22
2022-10-22T15:17:25.540Z,22.10
2022-10-22T15:19:53.303Z,21.97
2022-10-22T15:22:20.263Z,21.85
2022-10-22T15:24:48.671Z,21.73
2022-10-22T15:27:15.937Z,21.62
2022-10-22T15:29:43.244Z,21.48
2022-10-22T15:32:10.686Z,21.37
2022-10-22T15:34:38.866Z,21.19
2022-10-22T15:37:08.534Z,21.11
2022-10-22T15:39:36.263Z,20.98
2022-10-22T15:42:03.122Z,20.85
2022-10-22T15:44:31.727Z,20.71
2022-10-22T15:46:59.168Z,20.63
2022-10-22T15:49:27.932Z,20.55
2022-10-22T15:51:55.444Z,20.47
2022-10-22T15:54:25.683Z,20.29
2022-10-22T15:56:52.619Z,20.24
2022-10-22T15:59:19.673Z,20.13
2022-10-22T16:01:47.132Z,20.01
2022-10-22T16:04:14.874Z,19.89
2022-10-22T16:06:45.225Z,19.79
2022-10-22T16:09:15.382Z,19.65
2022-10-22T16:11:43.064Z,19.56
2022-10-22T16:14:15.257Z,19.50
2022-10-22T16:16:47.651Z,19.40
2022-10-22T16:19:16.694Z,19.29
2022-10-22T16:21:44.888Z,19.16
2022-10-22T16:24:12.693Z,19.10
2022-10-22T16:26:39.562Z,19.01
2022-10-22T16:29:25.181Z,18.98
2022-10-22T16:31:52.436Z,18.93
2022-10-22T16:34:19.237Z,18.86
2022-10-22T16:36:46.060Z,18.79
2022-10-22T16:39:13.042Z,18.76
2022-10-22T16:41:40.031Z,18.78
2022-10-22T16:44:08.837Z,18.78
2022-10-22T16:46:38.763Z,18.72
2022-10-22T16:49:06.326Z,18.62
2022-10-22T16:51:33.772Z,18.59
2022-10-22T16:54:00.644Z,18.56
2022-10-22T16:56:27.552Z,18.49
2022-10-22T16:58:57.083Z,18.50
2022-10-22T17:01:26.660Z,18.48
2022-10-22T17:03:56.863Z,18.53
2022-10-22T17:06:24.885Z,18.53
2022-10-22T17:08:51.849Z,18.48
2022-10-22T17:11:40.160Z,18.46
2022-10-22T17:14:09.672Z,18.22
2022-10-22T17:16:36.512Z,18.16
2022-10-22T17:19:04.422Z,18.22
2022-10-22T17:21:31.382Z,18.06
2022-10-22T17:23:58.512Z,18.05
2022-10-22T17:26:27.025Z,17.95
2022-10-22T17:28:54.863Z,17.95
2022-10-22T17:31:21.636Z,17.90
2022-10-22T17:33:50.326Z,17.88
2022-10-22T17:36:18.966Z,17.79
2022-10-22T17:38:49.613Z,17.79
2022-10-22T17:41:19.471Z,17.75
2022-10-22T17:43:47.579Z,17.63
2022-10-22T17:46:23.650Z,17.53
2022-10-22T17:49:04.910Z,17.50
2022-10-22T17:51:32.391Z,17.41
2022-10-22T17:53:59.392Z,17.27
2022-10-22T17:56:30.071Z,17.29
2022-10-22T17:58:57.321Z,17.16
2022-10-22T18:01:29.392Z,17.05
2022-10-22T18:04:00.505Z,16.99
2022-10-22T18:06:28.143Z,17.13
2022-10-22T18:08:54.970Z,16.95
2022-10-22T18:11:24.542Z,16.95
2022-10-22T18:13:53.367Z,16.71
2022-10-22T18:16:20.779Z,16.60
2022-10-22T18:18:55.810Z,16.71
2022-10-22T18:21:24.251Z,16.61
2022-10-22T18:23:51.278Z,16.60
2022-10-22T18:26:21.368Z,16.47
2022-10-22T18:28:51.151Z,16.44
2022-10-22T18:31:20.591Z,16.48
2022-10-22T18:33:48.389Z,16.38
2022-10-22T18:36:19.269Z,16.13
2022-10-22T18:38:50.983Z,16.25
2022-10-22T18:41:17.842Z,16.28
2022-10-22T18:43:44.759Z,16.18
2022-10-22T18:46:11.610Z,16.16
2022-10-22T18:48:38.390Z,16.07
2022-10-22T18:51:07.791Z,15.95
2022-10-22T18:53:36.383Z,15.93
2022-10-22T18:56:08.384Z,15.81
2022-10-22T18:58:43.236Z,15.58
2022-10-22T19:01:12.799Z,15.58
2022-10-22T19:03:41.339Z,15.58
2022-10-22T19:06:08.699Z,15.39
2022-10-22T19:08:37.059Z,15.43
2022-10-22T19:11:10.780Z,15.39
2022-10-22T19:13:37.927Z,15.43
2022-10-22T19:16:06.711Z,15.29
2022-10-22T19:18:34.268Z,15.39
2022-10-22T19:21:02.191Z,15.27
2022-10-22T19:23:30.693Z,15.25
2022-10-22T19:26:05.935Z,15.45
2022-10-22T19:28:33.512Z,15.24
2022-10-22T19:31:00.387Z,15.16
2022-10-22T19:33:28.091Z,15.26
2022-10-22T19:35:54.866Z,15.45
2022-10-22T19:38:21.750Z,15.63
2022-10-22T19:40:48.635Z,15.77
2022-10-22T19:43:18.881Z,15.91
2022-10-22T19:45:45.953Z,16.05
2022-10-22T19:48:12.776Z,16.19
2022-10-22T19:50:39.547Z,16.38
2022-10-22T19:53:06.327Z,16.49
2022-10-22T19:55:33.183Z,16.67
2022-10-22T19:58:00.015Z,16.75
2022-10-22T20:00:28.482Z,16.88
2022-10-22T20:02:55.331Z,16.93
2022-10-22T20:07:49.766Z,17.12
2022-10-22T20:10:16.743Z,17.16
2022-10-22T20:12:43.572Z,17.22
2022-10-22T20:15:10.482Z,17.26
2022-10-22T20:17:37.504Z,17.28
2022-10-22T20:20:04.705Z,17.31
2022-10-22T20:22:31.488Z,17.34
2022-10-22T20:24:58.366Z,17.30
2022-10-22T20:27:25.138Z,17.38
2022-10-22T20:29:51.933Z,17.39
2022-10-22T20:32:18.903Z,17.40
2022-10-22T20:34:46.060Z,17.41
2022-10-22T20:37:12.831Z,17.42
2022-10-22T20:39:39.746Z,17.44
2022-10-22T20:42:06.547Z,17.51
2022-10-22T20:44:33.372Z,17.55
2022-10-22T20:47:00.264Z,17.57
2022-10-22T20:49:27.150Z,17.66
2022-10-22T20:51:53.961Z,17.68
2022-10-22T20:54:20.886Z,17.71
2022-10-22T20:56:48.226Z,17.80
2022-10-22T20:59:15.637Z,17.85
2022-10-22T21:01:49.344Z,17.86
2022-10-22T21:04:17.302Z,17.91
2022-10-22T21:06:44.203Z,17.95
2022-10-22T21:09:13.150Z,17.93
2022-10-22T21:11:41.058Z,17.94
2022-10-22T21:14:10.101Z,17.92
2022-10-22T21:16:41.413Z,17.92
2022-10-22T21:19:08.282Z,17.92
2022-10-22T21:21:35.216Z,17.92
2022-10-22T21:24:02.084Z,18.00
2022-10-22T21:26:28.985Z,18.08
2022-10-22T21:28:56.177Z,18.19
2022-10-22T21:31:26.052Z,18.15
2022-10-22T21:33:53.883Z,18.18
2022-10-22T21:36:23.198Z,18.12
2022-10-22T21:38:54.058Z,18.11
2022-10-22T21:41:24.036Z,18.11
2022-10-22T21:43:51.888Z,18.08
2022-10-22T21:46:24.338Z,18.06
2022-10-22T21:48:59.381Z,18.00
2022-10-22T21:51:26.404Z,17.99
2022-10-22T21:53:53.518Z,17.90
2022-10-22T21:56:30.426Z,17.92
2022-10-22T21:58:57.202Z,17.87
2022-10-22T22:01:24.801Z,17.89
2022-10-22T22:03:52.895Z,17.90
2022-10-22T22:06:22.891Z,17.94
2022-10-22T22:08:51.823Z,17.87
2022-10-22T22:11:24.662Z,17.85
2022-10-22T22:13:53.224Z,17.87
2022-10-22T22:16:27.128Z,17.87
2022-10-22T22:18:57.246Z,17.86
2022-10-22T22:21:30.372Z,17.83
2022-10-22T22:23:58.102Z,17.85
2022-10-22T22:26:29.639Z,17.80
2022-10-22T22:29:00.520Z,17.69
2022-10-22T22:33:32.383Z,17.74
2022-10-22T22:35:59.866Z,17.67
2022-10-22T22:38:26.679Z,17.71
2022-10-22T22:40:53.579Z,17.72
2022-10-22T22:43:20.538Z,17.66
2022-10-22T22:45:47.392Z,17.67
2022-10-22T22:48:14.713Z,17.69
2022-10-22T22:50:41.495Z,17.66
2022-10-22T22:53:08.276Z,17.56
2022-10-22T22:55:35.242Z,17.51
2022-10-22T22:58:02.194Z,17.50
2022-10-22T23:00:29.085Z,17.52
2022-10-22T23:02:56.278Z,17.49
2022-10-22T23:05:23.252Z,17.55
2022-10-22T23:07:50.078Z,17.49
2022-10-22T23:10:17.178Z,17.53
2022-10-22T23:12:44.487Z,17.55
2022-10-22T23:15:11.708Z,17.51
2022-10-22T23:17:38.890Z,17.48
2022-10-22T23:20:06.702Z,17.49
2022-10-22T23:22:33.572Z,17.42
2022-10-22T23:25:00.449Z,17.51
2022-10-22T23:27:27.545Z,17.47
2022-10-22T23:29:54.372Z,17.51
2022-10-22T23:32:21.216Z,17.42
2022-10-22T23:34:48.188Z,17.44
2022-10-22T23:37:15.014Z,17.41
2022-10-22T23:39:41.903Z,17.37
2022-10-22T23:42:08.791Z,17.21
2022-10-22T23:44:39.581Z,17.16
2022-10-22T23:47:06.448Z,17.18
2022-10-22T23:49:33.303Z,17.16
2022-10-22T23:52:00.130Z,17.15
2022-10-22T23:54:27.040Z,17.11
2022-10-22T23:56:53.866Z,17.08
2022-10-22T23:59:21.373Z,17.13
